Time;durP1;ratioP1;P1;durP2;ratioP2;P2;SDS_P1;SDS_P2;PMS_P1;PMS_P2;Temp;Humidity;BMP_temperature;BMP_pressure;BME280_temperature;BME280_humidity;BME280_pressure;Samples;Min_cycle;Max_cycle;Signal;HPM_P1;HPM_P2
2022/08/05 00:01:56;;;;;;;;;;;;;;;;;;5076343;28;19912;-23
2022/08/05 00:04:22;;;;;;;;;;;;;;;;;;5076193;28;19919;-23
2022/08/05 00:06:48;;;;;;;;;;;;;;;;;;5076260;28;19920;-23
2022/08/05 00:09:14;;;;;;;;;;;;;;;;;;5076468;28;19921;-23
2022/08/05 00:11:40;;;;;;;;;;;;;;;;;;5076188;28;20251;-23
2022/08/05 00:14:06;;;;;;;;;;;;;;;;;;5076036;28;19908;-23
2022/08/05 00:16:32;;;;;;;;;;;;;;;;;;5076464;28;19916;-23
2022/08/05 00:18:58;;;;;;;;;;;;;;;;;;5076000;28;20297;-23
2022/08/05 00:21:24;;;;;;;;;;;;;;;;;;5058427;28;19916;-23
2022/08/05 00:23:50;;;;;;;;;;;;;;;;;;5076050;28;20346;-23
2022/08/05 00:26:16;;;;;;;;;;;;;;;;;;5075934;28;19912;-23
2022/08/05 00:28:42;;;;;;;;;;;;;;;;;;5075858;28;19908;-23
2022/08/05 00:31:08;;;;;;;;;;;;;;;;;;5058236;28;19921;-23
2022/08/05 00:33:34;;;;;;;;;;;;;;;;;;5075791;28;20310;-23
2022/08/05 00:36:00;;;;;;;;;;;;;;;;;;5075662;28;19943;-23
2022/08/05 00:38:26;;;;;;;;;;;;;;;;;;5075303;28;19970;-23
2022/08/05 00:40:52;;;;;;;;;;;;;;;;;;5075538;28;20353;-23
2022/08/05 00:43:18;;;;;;;;;;;;;;;;;;5075542;28;19915;-23
2022/08/05 00:45:46;;;;;;;;;;;;;;;;;;5075518;28;19916;-23
2022/08/05 00:48:12;;;;;;;;;;;;;;;;;;5075225;28;19908;-23
2022/08/05 00:50:38;;;;;;;;;;;;;;;;;;5075505;28;19908;-23
2022/08/05 00:53:04;;;;;;;;;;;;;;;;;;5075418;28;19943;-23
2022/08/05 00:55:30;;;;;;;;;;;;;;;;;;5075752;28;19912;-23
2022/08/05 00:57:56;;;;;;;;;;;;;;;;;;5075305;28;20394;-23
2022/08/05 01:00:22;;;;;;;;;;;;;;;;;;5075267;28;20011;-23
2022/08/05 01:02:48;;;;;;;;;;;;;;;;;;5075122;28;19916;-23
2022/08/05 01:05:14;;;;;;;;;;;;;;;;;;5057737;28;20414;-23
2022/08/05 01:07:41;;;;;;;;;;;;;;;;;;5057424;28;20277;-23
2022/08/05 01:10:07;;;;;;;;;;;;;;;;;;5075379;28;19912;-23
2022/08/05 01:12:33;;;;;;;;;;;;;;;;;;5075095;28;19913;-23
2022/08/05 01:14:59;;;;;;;;;;;;;;;;;;5075025;28;19966;-23
2022/08/05 01:17:25;;;;;;;;;;;;;;;;;;5075015;28;19912;-23
2022/08/05 01:19:51;;;;;;;;;;;;;;;;;;5074800;28;19916;-23
2022/08/05 01:22:17;;;;;;;;;;;;;;;;;;5074954;28;19913;-23
2022/08/05 01:24:43;;;;;;;;;;;;;;;;;;5074572;28;19915;-23
2022/08/05 01:27:09;;;;;;;;;;;;;;;;;;5074743;28;20006;-23
2022/08/05 01:29:35;;;;;;;;;;;;;;;;;;5057237;28;19947;-23
2022/08/05 01:32:01;;;;;;;;;;;;;;;;;;5057187;28;19920;-23
2022/08/05 01:34:27;;;;;;;;;;;;;;;;;;5074825;28;20275;-23
2022/08/05 01:36:53;;;;;;;;;;;;;;;;;;5074723;28;19923;-23
2022/08/05 01:39:19;;;;;;;;;;;;;;;;;;5074484;28;19920;-23
2022/08/05 01:41:45;;;;;;;;;;;;;;;;;;5074762;28;19928;-23
2022/08/05 01:44:11;;;;;;;;;;;;;;;;;;5074753;28;19919;-23
2022/08/05 01:46:37;;;;;;;;;;;;;;;;;;5074968;28;20003;-23
2022/08/05 01:49:03;;;;;;;;;;;;;;;;;;5074574;28;19944;-23
2022/08/05 01:51:29;;;;;;;;;;;;;;;;;;5056894;28;19920;-23
2022/08/05 01:53:55;;;;;;;;;;;;;;;;;;5074649;28;19912;-23
2022/08/05 01:56:21;;;;;;;;;;;;;;;;;;5074561;28;19970;-23
2022/08/05 01:58:47;;;;;;;;;;;;;;;;;;5074724;28;19924;-23
2022/08/05 02:01:13;;;;;;;;;;;;;;;;;;5074501;28;19912;-23
2022/08/05 02:03:39;;;;;;;;;;;;;;;;;;5074533;28;20371;-23
2022/08/05 02:06:05;;;;;;;;;;;;;;;;;;5074420;28;19928;-23
2022/08/05 02:08:31;;;;;;;;;;;;;;;;;;5074429;28;19934;-23
2022/08/05 02:10:57;;;;;;;;;;;;;;;;;;5074487;28;20003;-23
2022/08/05 02:13:23;;;;;;;;;;;;;;;;;;5074637;28;20003;-23
2022/08/05 02:15:49;;;;;;;;;;;;;;;;;;5074468;28;19959;-23
2022/08/05 02:18:15;;;;;;;;;;;;;;;;;;5074533;28;20331;-23
2022/08/05 02:20:41;;;;;;;;;;;;;;;;;;5074360;28;19923;-22
2022/08/05 02:23:07;;;;;;;;;;;;;;;;;;5074287;28;19908;-23
2022/08/05 02:25:33;;;;;;;;;;;;;;;;;;5074359;28;19946;-23
2022/08/05 02:27:58;;;;;;;;;;;;;;;;;;5074146;28;19912;-23
2022/08/05 02:30:25;;;;;;;;;;;;;;;;;;5074468;28;19912;-23
2022/08/05 02:32:50;;;;;;;;;;;;;;;;;;5056430;28;19959;-23
2022/08/05 02:35:16;;;;;;;;;;;;;;;;;;5074481;28;19916;-23
2022/08/05 02:37:42;;;;;;;;;;;;;;;;;;5075296;28;19916;-23
2022/08/05 02:40:08;;;;;;;;;;;;;;;;;;5060125;28;19930;-22
2022/08/05 02:42:34;;;;;;;;;;;;;;;;;;5078165;28;20240;-23
2022/08/05 02:45:00;;;;;;;;;;;;;;;;;;5060189;28;19919;-23
2022/08/05 02:47:26;;;;;;;;;;;;;;;;;;5077710;28;19912;-23
2022/08/05 02:49:52;;;;;;;;;;;;;;;;;;5078118;28;20357;-23
2022/08/05 02:52:18;;;;;;;;;;;;;;;;;;5077916;28;19995;-23
2022/08/05 02:54:44;;;;;;;;;;;;;;;;;;5077710;28;19917;-23
2022/08/05 02:57:10;;;;;;;;;;;;;;;;;;5077752;28;19912;-23
2022/08/05 02:59:36;;;;;;;;;;;;;;;;;;5077446;28;20370;-23
2022/08/05 03:02:02;;;;;;;;;;;;;;;;;;5077541;28;19923;-23
2022/08/05 03:04:28;;;;;;;;;;;;;;;;;;5077479;28;19935;-23
2022/08/05 03:06:54;;;;;;;;;;;;;;;;;;5077303;28;20005;-23
2022/08/05 03:09:20;;;;;;;;;;;;;;;;;;5077388;28;20306;-23
2022/08/05 03:11:46;;;;;;;;;;;;;;;;;;5077239;28;20302;-23
2022/08/05 03:14:12;;;;;;;;;;;;;;;;;;5077265;28;19912;-23
2022/08/05 03:16:38;;;;;;;;;;;;;;;;;;5077173;28;19970;-23
2022/08/05 03:19:04;;;;;;;;;;;;;;;;;;5077066;28;20342;-23
2022/08/05 03:21:30;;;;;;;;;;;;;;;;;;5077402;28;19973;-22
2022/08/05 03:23:56;;;;;;;;;;;;;;;;;;5059401;28;19913;-23
2022/08/05 03:26:22;;;;;;;;;;;;;;;;;;5077047;28;20042;-22
2022/08/05 03:28:48;;;;;;;;;;;;;;;;;;5077067;28;19920;-23
2022/08/05 03:31:14;;;;;;;;;;;;;;;;;;5076945;28;20267;-23
2022/08/05 03:33:40;;;;;;;;;;;;;;;;;;5059344;28;19920;-23
2022/08/05 03:36:06;;;;;;;;;;;;;;;;;;5059248;28;20009;-23
2022/08/05 03:38:32;;;;;;;;;;;;;;;;;;5076541;28;20228;-23
2022/08/05 03:40:58;;;;;;;;;;;;;;;;;;5076776;28;19913;-22
2022/08/05 03:43:24;;;;;;;;;;;;;;;;;;5076476;28;19936;-23
2022/08/05 03:45:50;;;;;;;;;;;;;;;;;;5076549;28;19908;-23
2022/08/05 03:48:17;;;;;;;;;;;;;;;;;;5075986;28;19970;-23
2022/08/05 03:50:43;;;;;;;;;;;;;;;;;;5076274;28;19919;-23
2022/08/05 03:53:10;;;;;;;;;;;;;;;;;;5076421;28;19908;-22
2022/08/05 03:55:36;;;;;;;;;;;;;;;;;;5076608;28;19912;-23
2022/08/05 03:58:02;;;;;;;;;;;;;;;;;;5076245;28;19915;-23
2022/08/05 04:00:30;;;;;;;;;;;;;;;;;;5076219;28;19938;-22
2022/08/05 04:02:56;;;;;;;;;;;;;;;;;;5076198;28;19920;-23
2022/08/05 04:05:22;;;;;;;;;;;;;;;;;;5076208;28;19909;-23
2022/08/05 04:07:48;;;;;;;;;;;;;;;;;;5076215;28;19912;-23
2022/08/05 04:10:14;;;;;;;;;;;;;;;;;;5076511;28;19923;-23
2022/08/05 04:12:40;;;;;;;;;;;;;;;;;;5076190;28;19913;-23
2022/08/05 04:15:06;;;;;;;;;;;;;;;;;;5058469;28;19936;-23
2022/08/05 04:17:32;;;;;;;;;;;;;;;;;;5076015;28;19919;-24
2022/08/05 04:19:58;;;;;;;;;;;;;;;;;;5075859;28;19916;-24
2022/08/05 04:22:24;;;;;;;;;;;;;;;;;;5058016;28;19908;-24
2022/08/05 04:24:50;;;;;;;;;;;;;;;;;;5058225;28;20303;-24
2022/08/05 04:27:16;;;;;;;;;;;;;;;;;;5058015;28;20240;-24
2022/08/05 04:29:42;;;;;;;;;;;;;;;;;;5075992;28;19916;-24
2022/08/05 04:32:08;;;;;;;;;;;;;;;;;;5075695;28;19912;-25
2022/08/05 04:34:34;;;;;;;;;;;;;;;;;;5075663;28;20053;-25
2022/08/05 04:36:59;;;;;;;;;;;;;;;;;;5075410;28;19920;-25
2022/08/05 04:39:25;;;;;;;;;;;;;;;;;;5075217;28;19920;-25
2022/08/05 04:41:51;;;;;;;;;;;;;;;;;;5075445;28;19958;-25
2022/08/05 04:44:17;;;;;;;;;;;;;;;;;;5075550;28;20301;-24
2022/08/05 04:46:43;;;;;;;;;;;;;;;;;;5075230;28;19912;-25
2022/08/05 04:49:09;;;;;;;;;;;;;;;;;;5075029;28;19962;-24
2022/08/05 04:51:35;;;;;;;;;;;;;;;;;;5075119;28;19912;-25
2022/08/05 04:54:01;;;;;;;;;;;;;;;;;;5075232;28;19912;-25
2022/08/05 04:56:27;;;;;;;;;;;;;;;;;;5075138;28;19919;-25
2022/08/05 04:58:53;;;;;;;;;;;;;;;;;;5075005;28;19916;-25
2022/08/05 05:01:19;;;;;;;;;;;;;;;;;;5056521;28;19909;-25
2022/08/05 05:03:45;;;;;;;;;;;;;;;;;;5057207;28;19912;-25
2022/08/05 05:06:11;;;;;;;;;;;;;;;;;;5074871;28;19913;-25
2022/08/05 05:08:37;;;;;;;;;;;;;;;;;;5075207;28;19919;-25
2022/08/05 05:11:03;;;;;;;;;;;;;;;;;;5057303;28;19923;-25
2022/08/05 05:13:29;;;;;;;;;;;;;;;;;;5074964;28;20339;-25
2022/08/05 05:15:55;;;;;;;;;;;;;;;;;;5074696;28;19919;-24
2022/08/05 05:18:21;;;;;;;;;;;;;;;;;;5074563;28;19908;-25
2022/08/05 05:20:47;;;;;;;;;;;;;;;;;;5074850;28;19976;-25
2022/08/05 05:23:13;;;;;;;;;;;;;;;;;;5074672;28;19915;-25
2022/08/05 05:25:39;;;;;;;;;;;;;;;;;;5074811;28;19928;-25
2022/08/05 05:28:05;;;;;;;;;;;;;;;;;;5074687;28;19915;-25
2022/08/05 05:30:31;;;;;;;;;;;;;;;;;;5074549;28;19912;-25
2022/08/05 05:32:57;;;;;;;;;;;;;;;;;;5074588;28;19965;-26
2022/08/05 05:35:23;;;;;;;;;;;;;;;;;;5074362;28;19963;-25
2022/08/05 05:37:49;;;;;;;;;;;;;;;;;;5074339;28;19916;-23
2022/08/05 05:40:15;;;;;;;;;;;;;;;;;;5074488;28;19921;-23
2022/08/05 05:42:41;;;;;;;;;;;;;;;;;;5074647;28;20038;-23
2022/08/05 05:45:07;;;;;;;;;;;;;;;;;;5074727;28;20328;-23
2022/08/05 05:47:33;;;;;;;;;;;;;;;;;;5074425;28;20258;-23
2022/08/05 05:49:59;;;;;;;;;;;;;;;;;;5074582;28;19912;-23
2022/08/05 05:52:25;;;;;;;;;;;;;;;;;;5074552;28;20377;-23
2022/08/05 05:54:51;;;;;;;;;;;;;;;;;;5074548;28;19977;-23
2022/08/05 05:57:18;;;;;;;;;;;;;;;;;;5074548;28;19970;-23
2022/08/05 05:59:44;;;;;;;;;;;;;;;;;;5074392;28;20315;-23
2022/08/05 06:02:10;;;;;;;;;;;;;;;;;;5074448;28;20339;-23
2022/08/05 06:04:36;;;;;;;;;;;;;;;;;;5074175;28;19915;-23
2022/08/05 06:07:02;;;;;;;;;;;;;;;;;;5056427;28;19913;-23
2022/08/05 06:09:28;;;;;;;;;;;;;;;;;;5074324;28;19916;-23
2022/08/05 06:11:54;;;;;;;;;;;;;;;;;;5076076;28;19938;-23
2022/08/05 06:14:20;;;;;;;;;;;;;;;;;;5059970;28;20386;-23
2022/08/05 06:16:46;;;;;;;;;;;;;;;;;;5077435;28;19912;-24
2022/08/05 06:19:12;;;;;;;;;;;;;;;;;;5077590;28;19912;-24
2022/08/05 06:21:38;;;;;;;;;;;;;;;;;;5077285;28;20280;-24
2022/08/05 06:24:04;;;;;;;;;;;;;;;;;;5077451;28;19924;-24
2022/08/05 06:26:30;;;;;;;;;;;;;;;;;;5077195;28;19955;-24
2022/08/05 06:28:56;;;;;;;;;;;;;;;;;;5077316;28;19970;-23
2022/08/05 06:31:22;;;;;;;;;;;;;;;;;;5077276;28;20346;-23
2022/08/05 06:33:49;;;;;;;;;;;;;;;;;;5059466;28;20346;-23
2022/08/05 06:36:15;;;;;;;;;;;;;;;;;;5077445;28;20011;-24
2022/08/05 06:38:41;;;;;;;;;;;;;;;;;;5076679;28;19962;-23
2022/08/05 06:41:07;;;;;;;;;;;;;;;;;;5077072;28;19951;-23
2022/08/05 06:43:33;;;;;;;;;;;;;;;;;;5077176;28;20020;-23
2022/08/05 06:45:59;;;;;;;;;;;;;;;;;;5077640;28;19912;-23
2022/08/05 06:48:25;;;;;;;;;;;;;;;;;;5077852;28;20388;-23
2022/08/05 06:50:51;;;;;;;;;;;;;;;;;;5077695;28;19913;-23
2022/08/05 06:53:17;;;;;;;;;;;;;;;;;;5059909;28;20358;-23
2022/08/05 06:55:43;;;;;;;;;;;;;;;;;;5077737;28;19995;-24
2022/08/05 06:58:09;;;;;;;;;;;;;;;;;;5077293;28;19912;-24
2022/08/05 07:00:35;;;;;;;;;;;;;;;;;;5077579;28;19927;-23
2022/08/05 07:03:01;;;;;;;;;;;;;;;;;;5077397;28;20332;-23
2022/08/05 07:05:27;;;;;;;;;;;;;;;;;;5077450;28;19995;-23
2022/08/05 07:07:53;;;;;;;;;;;;;;;;;;5077034;28;20343;-24
2022/08/05 07:10:19;;;;;;;;;;;;;;;;;;5077276;28;19909;-23
2022/08/05 07:18:14;;;;;;;;;;;;;;;;;;5076937;28;19942;-23
2022/08/05 07:20:40;;;;;;;;;;;;;;;;;;5076708;28;19927;-23
2022/08/05 07:23:06;;;;;;;;;;;;;;;;;;5076152;28;19909;-24
2022/08/05 07:25:32;;;;;;;;;;;;;;;;;;5077165;28;19913;-22
2022/08/05 07:27:58;;;;;;;;;;;;;;;;;;5076951;28;19963;-23
2022/08/05 07:30:24;;;;;;;;;;;;;;;;;;5059608;28;20007;-23
2022/08/05 07:32:50;;;;;;;;;;;;;;;;;;5076782;28;19916;-23
2022/08/05 07:35:17;;;;;;;;;;;;;;;;;;5077266;28;19920;-23
2022/08/05 07:37:43;;;;;;;;;;;;;;;;;;5076769;28;19912;-23
2022/08/05 07:40:08;;;;;;;;;;;;;;;;;;5076386;28;19927;-23
2022/08/05 07:42:34;;;;;;;;;;;;;;;;;;5058825;28;19939;-23
2022/08/05 07:45:00;;;;;;;;;;;;;;;;;;5076425;28;19921;-23
2022/08/05 07:47:26;;;;;;;;;;;;;;;;;;5076275;28;19923;-23
2022/08/05 07:49:53;;;;;;;;;;;;;;;;;;5076131;28;19908;-23
2022/08/05 07:52:19;;;;;;;;;;;;;;;;;;5076620;28;19955;-23
2022/08/05 07:54:45;;;;;;;;;;;;;;;;;;5076565;28;20351;-24
2022/08/05 07:57:11;;;;;;;;;;;;;;;;;;5076181;28;19919;-23
2022/08/05 07:59:37;;;;;;;;;;;;;;;;;;5075955;28;20307;-23
2022/08/05 08:02:03;;;;;;;;;;;;;;;;;;5076166;28;20026;-24
2022/08/05 08:04:29;;;;;;;;;;;;;;;;;;5075995;28;19919;-23
2022/08/05 08:06:55;;;;;;;;;;;;;;;;;;5075994;28;19916;-23
2022/08/05 08:09:23;;;;;;;;;;;;;;;;;;5076077;28;19935;-23
2022/08/05 08:11:49;;;;;;;;;;;;;;;;;;5075806;28;19924;-23
2022/08/05 08:14:15;;;;;;;;;;;;;;;;;;5075675;28;20228;-23
2022/08/05 08:16:41;;;;;;;;;;;;;;;;;;5075555;28;19926;-23
2022/08/05 08:19:07;;;;;;;;;;;;;;;;;;5057811;28;19927;-23
2022/08/05 08:21:33;;;;;;;;;;;;;;;;;;5075475;28;20259;-23
2022/08/05 08:23:59;;;;;;;;;;;;;;;;;;5057651;28;20351;-23
2022/08/05 08:26:25;;;;;;;;;;;;;;;;;;5075763;28;19917;-23
2022/08/05 08:28:51;;;;;;;;;;;;;;;;;;5075199;28;19947;-24
2022/08/05 08:31:17;;;;;;;;;;;;;;;;;;5075575;28;19942;-24
2022/08/05 08:33:43;;;;;;;;;;;;;;;;;;5075611;28;19909;-24
2022/08/05 08:36:09;;;;;;;;;;;;;;;;;;5075222;28;19920;-24
2022/08/05 08:38:35;;;;;;;;;;;;;;;;;;5074802;28;19920;-24
2022/08/05 08:41:01;;;;;;;;;;;;;;;;;;5075128;28;20309;-24
2022/08/05 08:43:27;;;;;;;;;;;;;;;;;;5075020;28;20014;-23
2022/08/05 08:45:53;;;;;;;;;;;;;;;;;;5075197;28;19913;-26
2022/08/05 08:48:19;;;;;;;;;;;;;;;;;;5074480;28;19944;-24
2022/08/05 08:50:46;;;;;;;;;;;;;;;;;;5074691;28;20409;-24
2022/08/05 08:53:12;;;;;;;;;;;;;;;;;;5074548;28;19920;-24
2022/08/05 08:55:38;;;;;;;;;;;;;;;;;;5074618;28;19941;-23
2022/08/05 08:58:04;;;;;;;;;;;;;;;;;;5074593;28;20338;-23
2022/08/05 09:00:30;;;;;;;;;;;;;;;;;;5074291;28;20343;-23
2022/08/05 09:02:56;;;;;;;;;;;;;;;;;;5074274;28;20226;-23
2022/08/05 09:05:22;;;;;;;;;;;;;;;;;;5074556;28;19916;-23
2022/08/05 09:07:48;;;;;;;;;;;;;;;;;;5074208;28;19920;-23
2022/08/05 09:10:14;;;;;;;;;;;;;;;;;;5074289;28;19912;-23
2022/08/05 09:12:40;;;;;;;;;;;;;;;;;;5074176;28;19920;-23
2022/08/05 09:15:06;;;;;;;;;;;;;;;;;;5074144;28;19912;-23
2022/08/05 09:17:33;;;;;;;;;;;;;;;;;;5074212;28;20003;-23
2022/08/05 09:19:59;;;;;;;;;;;;;;;;;;5056367;28;19927;-23
2022/08/05 09:22:25;;;;;;;;;;;;;;;;;;5074282;28;20440;-23
2022/08/05 09:24:51;;;;;;;;;;;;;;;;;;5074429;28;19947;-23
2022/08/05 09:27:17;;;;;;;;;;;;;;;;;;5074641;28;19991;-23
2022/08/05 09:29:48;;;;;;;;;;;;;;;;;;5074485;28;20444;-23
2022/08/05 09:32:14;;;;;;;;;;;;;;;;;;5056873;28;19923;-23
2022/08/05 09:34:40;;;;;;;;;;;;;;;;;;5074610;28;20301;-24
2022/08/05 09:37:06;;;;;;;;;;;;;;;;;;5056777;28;20347;-24
2022/08/05 09:39:32;;;;;;;;;;;;;;;;;;5074053;28;20358;-24
2022/08/05 09:41:58;;;;;;;;;;;;;;;;;;5074569;28;19908;-24
2022/08/05 09:44:25;;;;;;;;;;;;;;;;;;5074568;28;19924;-23
2022/08/05 09:46:50;;;;;;;;;;;;;;;;;;5073791;28;19916;-24
2022/08/05 09:49:17;;;;;;;;;;;;;;;;;;5074371;28;20297;-24
2022/08/05 09:51:43;;;;;;;;;;;;;;;;;;5074782;28;19912;-24
2022/08/05 09:54:10;;;;;;;;;;;;;;;;;;5056675;28;20049;-24
2022/08/05 09:56:36;;;;;;;;;;;;;;;;;;5074358;28;19913;-24
2022/08/05 09:59:03;;;;;;;;;;;;;;;;;;5079719;28;19920;-24
2022/08/05 10:18:31;;;;;;;;;;;;;;;;;;5077568;28;20404;-24
2022/08/05 10:29:35;;;;;;;;;;;;;;;;;;5077475;28;19958;-24
2022/08/05 10:34:39;;;;;;;;;;;;;;;;;;5052605;28;20346;-23
2022/08/05 10:37:05;;;;;;;;;;;;;;;;;;5053812;28;20024;-23
2022/08/05 10:39:32;;;;;;;;;;;;;;;;;;5053625;28;19917;-32
2022/08/05 10:41:59;;;;;;;;;;;;;;;;;;5052899;28;19913;-27
2022/08/05 10:44:25;;;;;;;;;;;;;;;;;;5033696;28;20407;-23
2022/08/05 10:46:52;;;;;;;;;;;;;;;;;;5033567;28;19924;-23
2022/08/05 10:49:18;;;;;;;;;;;;;;;;;;5016201;28;19913;-24
2022/08/05 10:51:44;;;;;;;;;;;;;;;;;;5033535;28;20004;-24
2022/08/05 10:54:10;;;;;;;;;;;;;;;;;;5033535;28;19955;-24
2022/08/05 10:56:36;;;;;;;;;;;;;;;;;;5033933;28;19940;-24
2022/08/05 10:59:03;;;;;;;;;;;;;;;;;;5034914;28;19915;-24
2022/08/05 11:01:29;;;;;;;;;;;;;;;;;;5036386;28;20008;-24
2022/08/05 11:03:55;;;;;;;;;;;;;;;;;;5036616;28;19944;-24
2022/08/05 11:06:21;;;;;;;;;;;;;;;;;;5036190;28;20003;-24
2022/08/05 11:08:47;;;;;;;;;;;;;;;;;;5036489;28;19932;-24
2022/08/05 11:11:13;;;;;;;;;;;;;;;;;;5036245;28;19950;-24
2022/08/05 11:13:39;;;;;;;;;;;;;;;;;;5036287;28;19925;-24
2022/08/05 11:16:05;;;;;;;;;;;;;;;;;;5036133;28;20006;-24
2022/08/05 11:18:34;;;;;;;;;;;;;;;;;;5036175;28;19913;-24
2022/08/05 11:21:01;;;;;;;;;;;;;;;;;;5036314;28;19924;-24
2022/08/05 11:23:27;;;;;;;;;;;;;;;;;;5037022;28;20266;-24
2022/08/05 11:25:53;;;;;;;;;;;;;;;;;;5036766;28;20004;-24
2022/08/05 11:28:19;;;;;;;;;;;;;;;;;;5036718;28;19909;-24
2022/08/05 11:30:45;;;;;;;;;;;;;;;;;;5036806;28;20414;-24
2022/08/05 11:33:11;;;;;;;;;;;;;;;;;;5026860;28;20377;-24
2022/08/05 11:35:37;;;;;;;;;;;;;;;;;;5056789;28;19951;-24
2022/08/05 11:38:04;;;;;;;;;;;;;;;;;;5056468;28;19940;-24
2022/08/05 11:40:30;;;;;;;;;;;;;;;;;;5038622;28;19927;-24
2022/08/05 11:42:56;;;;;;;;;;;;;;;;;;5056702;28;20260;-24
2022/08/05 11:45:22;;;;;;;;;;;;;;;;;;5056103;28;19920;-24
2022/08/05 11:47:48;;;;;;;;;;;;;;;;;;5056297;28;19913;-24
2022/08/05 11:50:14;;;;;;;;;;;;;;;;;;5056375;28;19965;-24
2022/08/05 11:52:40;;;;;;;;;;;;;;;;;;5056124;28;19913;-24
2022/08/05 11:55:06;;;;;;;;;;;;;;;;;;5038537;28;19936;-24
2022/08/05 11:57:32;;;;;;;;;;;;;;;;;;5056155;28;19912;-24
2022/08/05 11:59:58;;;;;;;;;;;;;;;;;;5038378;28;19912;-24
2022/08/05 12:02:25;;;;;;;;;;;;;;;;;;5056214;28;19913;-24
2022/08/05 12:04:51;;;;;;;;;;;;;;;;;;5055997;28;19913;-24
2022/08/05 12:07:17;;;;;;;;;;;;;;;;;;5055966;28;19913;-24
2022/08/05 12:09:43;;;;;;;;;;;;;;;;;;5038187;28;20239;-24
2022/08/05 12:12:09;;;;;;;;;;;;;;;;;;5038002;28;19912;-24
2022/08/05 12:14:35;;;;;;;;;;;;;;;;;;5055885;28;19962;-24
2022/08/05 12:17:01;;;;;;;;;;;;;;;;;;5055344;28;19921;-24
2022/08/05 12:19:27;;;;;;;;;;;;;;;;;;5055313;28;20218;-24
2022/08/05 12:21:53;;;;;;;;;;;;;;;;;;5055336;28;20378;-24
2022/08/05 12:24:19;;;;;;;;;;;;;;;;;;5038297;28;20322;-23
2022/08/05 12:26:46;;;;;;;;;;;;;;;;;;5055616;28;20262;-24
2022/08/05 12:29:12;;;;;;;;;;;;;;;;;;5055589;28;19912;-24
2022/08/05 12:31:38;;;;;;;;;;;;;;;;;;5037764;28;19913;-24
2022/08/05 12:34:04;;;;;;;;;;;;;;;;;;5055045;28;19921;-24
2022/08/05 12:36:30;;;;;;;;;;;;;;;;;;5055414;28;19958;-24
2022/08/05 12:38:56;;;;;;;;;;;;;;;;;;5055154;28;19925;-24
2022/08/05 12:41:22;;;;;;;;;;;;;;;;;;5055479;28;20228;-23
2022/08/05 12:43:49;;;;;;;;;;;;;;;;;;5055260;28;19920;-24
2022/08/05 12:46:15;;;;;;;;;;;;;;;;;;5055127;28;20110;-24
2022/08/05 12:48:41;;;;;;;;;;;;;;;;;;5055355;28;19924;-24
2022/08/05 12:51:07;;;;;;;;;;;;;;;;;;5054911;28;19924;-24
2022/08/05 12:53:33;;;;;;;;;;;;;;;;;;5055002;28;19991;-24
2022/08/05 12:55:59;;;;;;;;;;;;;;;;;;5055113;28;19912;-25
2022/08/05 12:58:25;;;;;;;;;;;;;;;;;;5055183;28;20259;-25
2022/08/05 13:00:51;;;;;;;;;;;;;;;;;;5037089;28;19973;-25
2022/08/05 13:03:17;;;;;;;;;;;;;;;;;;5054697;28;19917;-26
2022/08/05 13:05:43;;;;;;;;;;;;;;;;;;5055012;28;20366;-25
2022/08/05 13:08:09;;;;;;;;;;;;;;;;;;5054998;28;20315;-25
2022/08/05 13:10:35;;;;;;;;;;;;;;;;;;5037235;28;20204;-25
2022/08/05 13:13:01;;;;;;;;;;;;;;;;;;5037058;28;20314;-25
2022/08/05 13:15:28;;;;;;;;;;;;;;;;;;5055062;28;19944;-25
2022/08/05 13:17:56;;;;;;;;;;;;;;;;;;5037100;28;19943;-25
2022/08/05 13:20:23;;;;;;;;;;;;;;;;;;5054455;28;19913;-25
2022/08/05 13:22:49;;;;;;;;;;;;;;;;;;5053973;28;19920;-25
2022/08/05 13:25:15;;;;;;;;;;;;;;;;;;5054708;28;19913;-25
2022/08/05 13:27:43;;;;;;;;;;;;;;;;;;5054567;28;20067;-23
2022/08/05 13:30:09;;;;;;;;;;;;;;;;;;5054193;28;19997;-24
2022/08/05 13:32:35;;;;;;;;;;;;;;;;;;5054264;28;19924;-24
2022/08/05 13:35:01;;;;;;;;;;;;;;;;;;5054392;28;20397;-24
2022/08/05 13:37:27;;;;;;;;;;;;;;;;;;5054489;28;20266;-24
2022/08/05 13:39:53;;;;;;;;;;;;;;;;;;5054441;28;19920;-24
2022/08/05 13:42:21;;;;;;;;;;;;;;;;;;5053128;28;20386;-24
2022/08/05 13:44:47;;;;;;;;;;;;;;;;;;5054355;28;20324;-24
2022/08/05 13:47:13;;;;;;;;;;;;;;;;;;5053923;28;19912;-24
2022/08/05 13:49:39;;;;;;;;;;;;;;;;;;5036523;28;19909;-24
2022/08/05 13:52:05;;;;;;;;;;;;;;;;;;5054498;28;19915;-24
2022/08/05 13:54:31;;;;;;;;;;;;;;;;;;5036472;28;20331;-24
2022/08/05 13:56:57;;;;;;;;;;;;;;;;;;5053875;28;19945;-24
2022/08/05 13:59:23;;;;;;;;;;;;;;;;;;5053901;28;20321;-24
2022/08/05 14:01:50;;;;;;;;;;;;;;;;;;5053824;28;19908;-24
2022/08/05 14:07:00;;;;;;;;;;;;;;;;;;5053916;28;19946;-24
2022/08/05 14:09:26;;;;;;;;;;;;;;;;;;5054201;28;19924;-24
2022/08/05 14:11:52;;;;;;;;;;;;;;;;;;5053624;28;20253;-24
2022/08/05 14:14:18;;;;;;;;;;;;;;;;;;5053800;28;19998;-24
2022/08/05 14:16:44;;;;;;;;;;;;;;;;;;5054210;28;20005;-25
2022/08/05 14:19:10;;;;;;;;;;;;;;;;;;5053987;28;19916;-24
2022/08/05 14:21:36;;;;;;;;;;;;;;;;;;5054122;28;20031;-24
2022/08/05 14:24:03;;;;;;;;;;;;;;;;;;5054175;28;19954;-24
2022/08/05 14:26:29;;;;;;;;;;;;;;;;;;5054132;28;19932;-24
2022/08/05 14:28:55;;;;;;;;;;;;;;;;;;5054230;28;19912;-24
2022/08/05 14:31:21;;;;;;;;;;;;;;;;;;5037082;28;19919;-24
2022/08/05 14:33:47;;;;;;;;;;;;;;;;;;5057269;28;20366;-24
2022/08/05 14:36:13;;;;;;;;;;;;;;;;;;5057878;28;19927;-24
2022/08/05 14:38:39;;;;;;;;;;;;;;;;;;5057838;28;19909;-24
2022/08/05 14:41:05;;;;;;;;;;;;;;;;;;5057992;28;19924;-24
2022/08/05 14:43:31;;;;;;;;;;;;;;;;;;5057626;28;19909;-23
2022/08/05 14:45:57;;;;;;;;;;;;;;;;;;5057725;28;19912;-24
2022/08/05 14:48:23;;;;;;;;;;;;;;;;;;5039767;28;19916;-24
2022/08/05 14:50:49;;;;;;;;;;;;;;;;;;5057647;28;19980;-24
2022/08/05 14:53:15;;;;;;;;;;;;;;;;;;5057591;28;19924;-24
2022/08/05 14:55:41;;;;;;;;;;;;;;;;;;5057765;28;19909;-23
2022/08/05 14:58:07;;;;;;;;;;;;;;;;;;5039917;28;19912;-24
2022/08/05 15:00:33;;;;;;;;;;;;;;;;;;5057267;28;19956;-24
2022/08/05 15:02:59;;;;;;;;;;;;;;;;;;5057239;28;19916;-24
2022/08/05 15:05:26;;;;;;;;;;;;;;;;;;5057228;28;19923;-23
2022/08/05 15:07:52;;;;;;;;;;;;;;;;;;5057596;28;20030;-23
2022/08/05 15:10:18;;;;;;;;;;;;;;;;;;5057170;28;20386;-23
2022/08/05 15:12:44;;;;;;;;;;;;;;;;;;5057232;28;19959;-24
2022/08/05 15:15:10;;;;;;;;;;;;;;;;;;5038936;28;19912;-24
2022/08/05 15:20:28;;;;;;;;;;;;;;;;;;5058973;28;19943;-23
2022/08/05 15:22:55;;;;;;;;;;;;;;;;;;5041931;28;19913;-23
2022/08/05 15:25:22;;;;;;;;;;;;;;;;;;5041121;28;19974;-24
2022/08/05 15:27:49;;;;;;;;;;;;;;;;;;5058431;28;19913;-23
2022/08/05 15:30:17;;;;;;;;;;;;;;;;;;5059064;28;19913;-23
2022/08/05 15:32:44;;;;;;;;;;;;;;;;;;5058246;28;19917;-23
2022/08/05 15:35:11;;;;;;;;;;;;;;;;;;5041701;28;19966;-23
2022/08/05 15:37:39;;;;;;;;;;;;;;;;;;5059333;28;19913;-23
2022/08/05 15:40:08;;;;;;;;;;;;;;;;;;5058970;28;19921;-23
2022/08/05 15:42:35;;;;;;;;;;;;;;;;;;5058940;28;20375;-24
2022/08/05 15:45:04;;;;;;;;;;;;;;;;;;5058427;28;20007;-23
2022/08/05 15:47:31;;;;;;;;;;;;;;;;;;5059489;28;20219;-23
2022/08/05 15:49:58;;;;;;;;;;;;;;;;;;5059090;28;19992;-23
2022/08/05 15:52:26;;;;;;;;;;;;;;;;;;5059177;28;19913;-24
2022/08/05 15:54:54;;;;;;;;;;;;;;;;;;5059460;28;19982;-24
2022/08/05 15:57:22;;;;;;;;;;;;;;;;;;5042157;28;20279;-24
2022/08/05 15:59:49;;;;;;;;;;;;;;;;;;5060185;28;19948;-24
2022/08/05 16:02:15;;;;;;;;;;;;;;;;;;5041460;28;20004;-24
2022/08/05 16:04:42;;;;;;;;;;;;;;;;;;5058351;28;19923;-24
2022/08/05 16:07:10;;;;;;;;;;;;;;;;;;5059074;28;19908;-24
2022/08/05 16:09:37;;;;;;;;;;;;;;;;;;5058000;28;19913;-24
2022/08/05 16:12:05;;;;;;;;;;;;;;;;;;5058851;28;19912;-25
2022/08/05 16:14:32;;;;;;;;;;;;;;;;;;5058042;28;20331;-23
2022/08/05 16:17:00;;;;;;;;;;;;;;;;;;5040583;28;19928;-23
2022/08/05 16:19:28;;;;;;;;;;;;;;;;;;5057981;28;19916;-24
2022/08/05 16:21:56;;;;;;;;;;;;;;;;;;5040502;28;19986;-23
2022/08/05 16:24:22;;;;;;;;;;;;;;;;;;5058014;28;19952;-23
2022/08/05 16:26:49;;;;;;;;;;;;;;;;;;5058109;28;20255;-24
2022/08/05 16:29:17;;;;;;;;;;;;;;;;;;5040578;28;19908;-24
2022/08/05 16:31:43;;;;;;;;;;;;;;;;;;5058147;28;19966;-23
2022/08/05 16:34:11;;;;;;;;;;;;;;;;;;5039683;28;19951;-24
2022/08/05 16:36:38;;;;;;;;;;;;;;;;;;5040288;28;20251;-24
2022/08/05 16:39:05;;;;;;;;;;;;;;;;;;5039740;28;19913;-23
2022/08/05 16:41:32;;;;;;;;;;;;;;;;;;5056560;28;19909;-23
2022/08/05 16:43:59;;;;;;;;;;;;;;;;;;5039640;28;19913;-24
2022/08/05 16:46:26;;;;;;;;;;;;;;;;;;5039322;28;19909;-24
2022/08/05 16:48:53;;;;;;;;;;;;;;;;;;5039104;28;19971;-24
2022/08/05 16:51:20;;;;;;;;;;;;;;;;;;5056939;28;19909;-25
2022/08/05 16:53:48;;;;;;;;;;;;;;;;;;5039283;28;19913;-25
2022/08/05 16:56:15;;;;;;;;;;;;;;;;;;5056034;28;19992;-25
2022/08/05 16:58:42;;;;;;;;;;;;;;;;;;5056842;28;19966;-26
2022/08/05 17:01:09;;;;;;;;;;;;;;;;;;5056892;28;19917;-25
2022/08/05 17:03:36;;;;;;;;;;;;;;;;;;5056998;28;19913;-25
2022/08/05 17:06:03;;;;;;;;;;;;;;;;;;5039308;28;20360;-25
2022/08/05 17:08:30;;;;;;;;;;;;;;;;;;5039222;28;19924;-25
2022/08/05 17:10:57;;;;;;;;;;;;;;;;;;5056832;28;20441;-25
2022/08/05 17:13:25;;;;;;;;;;;;;;;;;;5038800;28;19928;-25
2022/08/05 17:15:51;;;;;;;;;;;;;;;;;;5039086;28;19973;-25
2022/08/05 17:18:19;;;;;;;;;;;;;;;;;;5039290;28;19920;-25